createdAt,value
2022-10-12T00:01:50.049Z,9.78
2022-10-12T00:04:53.301Z,9.78
2022-10-12T00:07:57.915Z,9.77
2022-10-12T00:11:01.299Z,9.68
2022-10-12T00:14:04.731Z,9.70
2022-10-12T00:17:07.899Z,9.49
2022-10-12T00:20:12.039Z,9.75
2022-10-12T00:23:16.610Z,9.76
2022-10-12T00:26:21.646Z,9.64
2022-10-12T00:29:25.493Z,9.58
2022-10-12T00:32:28.698Z,9.75
2022-10-12T00:35:31.874Z,9.69
2022-10-12T00:38:36.375Z,9.67
2022-10-12T00:41:41.963Z,9.57
2022-10-12T00:44:46.677Z,9.61
2022-10-12T00:47:52.906Z,9.32
2022-10-12T00:50:57.072Z,9.40
2022-10-12T00:54:07.078Z,9.60
2022-10-12T00:57:12.638Z,9.43
2022-10-12T01:00:16.882Z,9.32
2022-10-12T01:03:23.537Z,9.16
2022-10-12T01:06:26.789Z,9.28
2022-10-12T01:09:31.920Z,9.43
2022-10-12T01:12:35.958Z,9.02
2022-10-12T01:15:46.564Z,8.82
2022-10-12T01:18:57.099Z,9.01
2022-10-12T01:22:04.366Z,8.94
2022-10-12T01:25:19.598Z,8.72
2022-10-12T01:28:37.226Z,8.79
2022-10-12T01:31:48.253Z,9.07
2022-10-12T01:34:58.573Z,8.20
2022-10-12T01:38:12.125Z,8.62
2022-10-12T01:41:21.152Z,8.53
2022-10-12T01:44:26.589Z,8.48
2022-10-12T01:47:32.721Z,9.21
2022-10-12T01:50:44.542Z,8.46
2022-10-12T01:53:56.532Z,8.40
2022-10-12T01:57:07.362Z,8.44
2022-10-12T02:00:13.089Z,8.30
2022-10-12T02:03:24.442Z,8.77
2022-10-12T02:06:33.437Z,8.16
2022-10-12T02:09:38.117Z,8.25
2022-10-12T02:12:43.422Z,8.11
2022-10-12T02:15:48.921Z,8.06
2022-10-12T02:18:56.967Z,8.08
2022-10-12T02:22:03.122Z,8.03
2022-10-12T02:25:11.057Z,7.92
2022-10-12T02:28:18.714Z,7.94
2022-10-12T02:31:29.130Z,7.85
2022-10-12T02:34:37.301Z,7.89
2022-10-12T02:37:44.571Z,7.61
2022-10-12T02:40:52.426Z,7.72
2022-10-12T02:44:00.791Z,7.67
2022-10-12T02:47:05.417Z,7.64
2022-10-12T02:50:11.397Z,7.42
2022-10-12T02:53:15.828Z,7.59
2022-10-12T02:56:18.891Z,7.63
2022-10-12T02:59:22.096Z,7.50
2022-10-12T03:02:25.299Z,7.30
2022-10-12T03:05:29.793Z,7.16
2022-10-12T03:08:32.901Z,7.06
2022-10-12T03:11:37.660Z,7.25
2022-10-12T03:14:40.799Z,7.23
2022-10-12T03:17:43.941Z,7.20
2022-10-12T03:20:50.333Z,7.09
2022-10-12T03:23:53.480Z,7.17
2022-10-12T03:26:56.994Z,7.04
2022-10-12T03:30:00.163Z,6.90
2022-10-12T03:34:33.292Z,7.31
2022-10-12T03:37:36.801Z,6.85
2022-10-12T03:40:40.455Z,6.82
2022-10-12T03:43:43.815Z,6.67
2022-10-12T03:46:47.052Z,6.57
2022-10-12T03:49:51.700Z,6.96
2022-10-12T03:52:54.954Z,6.82
2022-10-12T03:55:58.189Z,7.06
2022-10-12T03:59:01.528Z,6.85
2022-10-12T04:02:04.695Z,6.66
2022-10-12T04:05:10.274Z,6.58
2022-10-12T04:08:13.672Z,6.54
2022-10-12T04:11:17.385Z,6.53
2022-10-12T04:14:20.505Z,6.41
2022-10-12T04:17:23.965Z,6.37
2022-10-12T04:20:28.587Z,6.33
2022-10-12T04:23:31.754Z,6.33
2022-10-12T04:26:34.924Z,6.36
2022-10-12T04:29:38.237Z,6.29
2022-10-12T04:32:41.584Z,6.13
2022-10-12T04:35:46.092Z,6.44
2022-10-12T04:38:49.218Z,6.35
2022-10-12T04:41:52.322Z,6.19
2022-10-12T04:44:55.510Z,6.17
2022-10-12T04:47:58.670Z,5.96
2022-10-12T04:51:03.191Z,6.10
2022-10-12T04:54:06.577Z,6.06
2022-10-12T04:57:10.005Z,6.05
2022-10-12T05:00:13.934Z,5.93
2022-10-12T05:03:17.567Z,6.08
2022-10-12T05:06:22.124Z,6.09
2022-10-12T05:09:25.453Z,6.11
2022-10-12T05:12:28.752Z,6.21
2022-10-12T05:15:32.141Z,6.27
2022-10-12T05:18:35.272Z,6.41
2022-10-12T05:21:40.473Z,6.40
2022-10-12T05:24:43.656Z,6.63
2022-10-12T05:27:46.843Z,6.61
2022-10-12T05:30:51.309Z,6.66
2022-10-12T05:33:54.433Z,6.40
2022-10-12T05:36:59.270Z,6.92
2022-10-12T05:40:02.529Z,7.18
2022-10-12T05:43:06.192Z,6.94
2022-10-12T05:46:14.248Z,6.95
2022-10-12T05:49:17.824Z,7.33
2022-10-12T05:52:22.476Z,7.09
2022-10-12T05:55:25.693Z,7.16
2022-10-12T05:58:30.842Z,7.19
2022-10-12T06:01:34.220Z,7.65
2022-10-12T06:04:37.535Z,7.44
2022-10-12T06:07:42.575Z,7.69
2022-10-12T06:10:51.362Z,7.54
2022-10-12T06:13:54.898Z,7.60
2022-10-12T06:16:58.075Z,7.62
2022-10-12T06:20:01.268Z,7.64
2022-10-12T06:23:06.168Z,7.85
2022-10-12T06:26:09.282Z,7.65
2022-10-12T06:29:12.815Z,7.69
2022-10-12T06:32:16.000Z,7.78
2022-10-12T06:35:21.755Z,7.94
2022-10-12T06:38:26.314Z,7.80
2022-10-12T06:41:29.397Z,7.98
2022-10-12T06:44:32.846Z,8.14
2022-10-12T06:47:35.998Z,7.97
2022-10-12T06:50:39.519Z,8.10
2022-10-12T06:53:44.330Z,8.07
2022-10-12T06:56:47.647Z,8.02
2022-10-12T06:59:50.798Z,8.05
2022-10-12T07:02:53.977Z,8.04
2022-10-12T07:05:57.131Z,8.20
2022-10-12T07:09:02.209Z,8.23
2022-10-12T07:12:05.963Z,8.29
2022-10-12T07:15:10.284Z,8.24
2022-10-12T07:18:13.403Z,8.35
2022-10-12T07:21:16.600Z,8.70
2022-10-12T07:24:21.155Z,8.47
2022-10-12T07:27:24.620Z,8.44
2022-10-12T07:30:27.980Z,8.81
2022-10-12T07:33:35.210Z,8.60
2022-10-12T07:36:57.928Z,8.86
2022-10-12T07:40:04.115Z,9.17
2022-10-12T07:43:15.723Z,8.99
2022-10-12T07:46:19.561Z,9.01
2022-10-12T07:49:22.986Z,9.24
2022-10-12T07:52:27.503Z,9.26
2022-10-12T07:55:32.970Z,9.35
2022-10-12T07:58:36.348Z,9.04
2022-10-12T08:01:39.520Z,9.62
2022-10-12T08:04:43.206Z,9.72
2022-10-12T08:07:46.361Z,9.86
2022-10-12T08:10:51.046Z,10.23
2022-10-12T08:13:55.079Z,10.26
2022-10-12T08:16:58.198Z,10.72
2022-10-12T08:20:01.350Z,10.55
2022-10-12T08:23:04.613Z,10.96
2022-10-12T08:26:09.355Z,11.00
2022-10-12T08:29:12.652Z,11.04
2022-10-12T08:32:15.842Z,11.18
2022-10-12T08:35:19.007Z,11.29
2022-10-12T08:38:22.158Z,11.23
2022-10-12T08:41:46.984Z,11.37
2022-10-12T08:45:27.479Z,11.00
2022-10-12T08:48:37.023Z,10.99
2022-10-12T08:51:48.110Z,11.16
2022-10-12T08:54:51.528Z,11.49
2022-10-12T08:57:56.111Z,11.48
2022-10-12T09:01:11.680Z,11.75
2022-10-12T09:04:34.440Z,11.56
2022-10-12T09:07:41.625Z,11.62
2022-10-12T09:10:47.649Z,11.52
2022-10-12T09:14:00.645Z,12.60
2022-10-12T09:17:09.613Z,11.81
2022-10-12T09:20:20.297Z,12.08
2022-10-12T09:23:26.234Z,12.04
2022-10-12T09:26:35.715Z,12.72
2022-10-12T09:29:40.500Z,12.55
2022-10-12T09:34:33.213Z,12.67
2022-10-12T09:37:37.191Z,12.63
2022-10-12T09:40:41.221Z,12.91
2022-10-12T09:43:44.625Z,12.88
2022-10-12T09:46:55.316Z,12.83
2022-10-12T09:50:02.117Z,12.74
2022-10-12T09:53:14.513Z,12.91
2022-10-12T09:56:25.352Z,14.05
2022-10-12T09:59:31.279Z,13.38
2022-10-12T10:02:47.743Z,13.59
2022-10-12T10:06:03.744Z,13.40
2022-10-12T10:09:07.629Z,13.08
2022-10-12T10:12:22.685Z,13.45
2022-10-12T10:15:28.612Z,13.25
2022-10-12T10:18:35.976Z,13.52
2022-10-12T10:21:41.508Z,13.62
2022-10-12T10:24:50.471Z,13.79
2022-10-12T10:28:22.574Z,13.80
2022-10-12T10:31:29.383Z,14.17
2022-10-12T10:34:32.584Z,14.39
2022-10-12T10:37:37.045Z,14.39
2022-10-12T10:40:40.290Z,13.73
2022-10-12T10:43:48.177Z,13.87
2022-10-12T10:46:52.280Z,14.20
2022-10-12T10:49:59.167Z,14.74
2022-10-12T10:53:06.374Z,14.99
2022-10-12T10:56:13.041Z,14.64
2022-10-12T10:59:20.982Z,14.01
2022-10-12T11:02:35.196Z,14.50
2022-10-12T11:05:44.176Z,14.58
2022-10-12T11:08:53.991Z,14.35
2022-10-12T11:12:03.004Z,14.58
2022-10-12T11:15:16.441Z,14.79
2022-10-12T11:18:25.971Z,14.63
2022-10-12T11:21:36.482Z,14.20
2022-10-12T11:24:46.270Z,14.69
2022-10-12T11:27:53.780Z,14.52
2022-10-12T11:30:57.239Z,15.03
2022-10-12T11:34:08.942Z,14.63
2022-10-12T11:37:21.006Z,14.59
2022-10-12T11:40:48.634Z,14.26
2022-10-12T11:43:57.273Z,14.39
2022-10-12T11:47:04.005Z,14.19
2022-10-12T11:50:16.311Z,14.04
2022-10-12T11:53:26.467Z,14.14
2022-10-12T11:56:35.679Z,14.29
2022-10-12T11:59:43.580Z,14.12
2022-10-12T12:02:50.445Z,14.48
2022-10-12T12:05:53.478Z,14.45
2022-10-12T12:09:18.741Z,14.91
2022-10-12T12:12:25.625Z,14.62
2022-10-12T12:15:29.085Z,14.75
2022-10-12T12:18:34.031Z,14.42
2022-10-12T12:22:10.397Z,14.61
2022-10-12T12:25:34.672Z,14.60
2022-10-12T12:28:40.862Z,14.73
2022-10-12T12:31:44.060Z,14.44
2022-10-12T12:35:00.490Z,15.03
2022-10-12T12:38:18.233Z,14.99
2022-10-12T12:41:23.054Z,14.88
2022-10-12T12:44:41.547Z,15.01
2022-10-12T12:47:46.166Z,15.24
2022-10-12T12:50:51.502Z,15.26
2022-10-12T12:54:01.186Z,15.04
2022-10-12T12:57:25.689Z,15.45
2022-10-12T13:00:38.228Z,15.05
2022-10-12T13:04:01.519Z,15.40
2022-10-12T13:07:34.467Z,15.74
2022-10-12T13:10:55.641Z,15.35
2022-10-12T13:14:08.022Z,15.60
2022-10-12T13:17:34.258Z,15.10
2022-10-12T13:20:40.185Z,15.32
2022-10-12T13:23:46.951Z,15.41
2022-10-12T13:26:52.511Z,15.14
2022-10-12T13:29:59.362Z,15.23
2022-10-12T13:33:14.211Z,15.10
2022-10-12T13:36:22.579Z,15.12
2022-10-12T13:39:26.761Z,15.32
2022-10-12T13:42:33.449Z,15.30
2022-10-12T13:45:45.422Z,15.18
2022-10-12T13:49:05.940Z,15.23
2022-10-12T13:52:21.718Z,15.37
2022-10-12T13:55:29.160Z,15.23
2022-10-12T13:58:33.844Z,15.26
2022-10-12T14:01:49.254Z,15.34
2022-10-12T14:04:57.156Z,15.50
2022-10-12T14:08:06.602Z,15.24
2022-10-12T14:11:10.703Z,15.51
2022-10-12T14:14:21.497Z,15.49
2022-10-12T14:17:24.952Z,15.50
2022-10-12T14:20:32.370Z,15.73
2022-10-12T14:23:35.556Z,15.49
2022-10-12T14:26:41.555Z,15.55
2022-10-12T14:29:46.716Z,15.05
2022-10-12T14:32:53.965Z,14.96
2022-10-12T14:36:16.179Z,15.09
2022-10-12T14:39:20.877Z,15.05
2022-10-12T14:42:29.410Z,15.07
2022-10-12T14:45:33.323Z,15.01
2022-10-12T14:48:37.250Z,14.81
2022-10-12T14:51:41.935Z,14.75
2022-10-12T14:54:45.341Z,14.69
2022-10-12T14:57:49.752Z,14.45
2022-10-12T15:00:52.952Z,14.12
2022-10-12T15:03:56.183Z,14.52
2022-10-12T15:07:00.824Z,14.41
2022-10-12T15:10:04.514Z,14.34
2022-10-12T15:13:07.965Z,14.30
2022-10-12T15:16:19.545Z,14.30
2022-10-12T15:19:22.629Z,14.22
2022-10-12T15:22:29.143Z,14.08
2022-10-12T15:25:42.689Z,14.03
2022-10-12T15:28:46.209Z,14.09
2022-10-12T15:34:33.242Z,13.90
2022-10-12T15:37:36.389Z,13.82
2022-10-12T15:40:40.521Z,13.76
2022-10-12T15:43:43.921Z,13.58
2022-10-12T15:46:52.059Z,13.45
2022-10-12T15:49:56.552Z,13.32
2022-10-12T15:52:59.694Z,13.17
2022-10-12T15:56:02.817Z,13.07
2022-10-12T15:59:06.492Z,12.97
2022-10-12T16:02:11.973Z,12.83
2022-10-12T16:05:21.022Z,12.67
2022-10-12T16:08:24.589Z,12.56
2022-10-12T16:11:27.770Z,12.56
2022-10-12T16:14:31.416Z,12.36
2022-10-12T16:17:34.543Z,12.18
2022-10-12T16:20:41.351Z,12.14
2022-10-12T16:23:44.488Z,12.22
2022-10-12T16:26:49.972Z,12.11
2022-10-12T16:29:53.718Z,11.91
2022-10-12T16:32:56.919Z,11.90
2022-10-12T16:36:01.383Z,11.81
2022-10-12T16:39:04.576Z,11.53
2022-10-12T16:42:07.680Z,11.63
2022-10-12T16:45:11.703Z,11.61
2022-10-12T16:48:14.793Z,11.39
2022-10-12T16:51:19.301Z,11.35
2022-10-12T16:54:23.247Z,11.42
2022-10-12T16:57:26.319Z,11.53
2022-10-12T17:00:29.633Z,11.23
2022-10-12T17:03:32.996Z,11.29
2022-10-12T17:06:37.530Z,11.17
2022-10-12T17:09:40.716Z,11.05
2022-10-12T17:12:44.137Z,10.86
2022-10-12T17:15:47.536Z,10.74
2022-10-12T17:18:53.542Z,10.76
2022-10-12T17:22:04.395Z,10.73
2022-10-12T17:25:08.736Z,10.61
2022-10-12T17:28:12.223Z,10.60
2022-10-12T17:31:15.437Z,10.51
2022-10-12T17:34:22.018Z,10.19
2022-10-12T17:37:26.873Z,10.51
2022-10-12T17:40:30.016Z,10.45
2022-10-12T17:43:33.464Z,10.46
2022-10-12T17:46:36.565Z,10.30
2022-10-12T17:49:39.775Z,10.35
2022-10-12T17:52:45.673Z,10.24
2022-10-12T17:55:49.258Z,10.26
2022-10-12T17:58:57.182Z,10.20
2022-10-12T18:02:00.845Z,10.07
2022-10-12T18:05:04.203Z,10.20
2022-10-12T18:08:08.771Z,9.76
2022-10-12T18:11:12.872Z,10.13
2022-10-12T18:14:16.018Z,10.08
2022-10-12T18:17:19.158Z,10.13
2022-10-12T18:20:22.395Z,10.08
2022-10-12T18:23:26.931Z,9.90
2022-10-12T18:26:30.588Z,10.02
2022-10-12T18:29:34.015Z,10.45
2022-10-12T18:32:37.702Z,9.45
2022-10-12T18:35:41.354Z,9.99
2022-10-12T18:38:46.050Z,9.95
2022-10-12T18:41:51.481Z,9.95
2022-10-12T18:44:55.076Z,9.87
2022-10-12T18:47:58.323Z,9.81
2022-10-12T18:51:05.319Z,9.78
2022-10-12T18:54:12.740Z,9.71
2022-10-12T18:57:15.875Z,9.59
2022-10-12T19:00:19.677Z,9.70
2022-10-12T19:03:23.246Z,9.69
2022-10-12T19:06:29.099Z,9.87
2022-10-12T19:09:33.658Z,9.77
2022-10-12T19:12:36.805Z,9.87
2022-10-12T19:15:40.022Z,10.17
2022-10-12T19:18:43.656Z,10.27
2022-10-12T19:21:46.903Z,10.40
2022-10-12T19:24:51.602Z,10.06
2022-10-12T19:27:54.935Z,10.13
2022-10-12T19:30:58.712Z,9.85
2022-10-12T19:34:04.247Z,10.02
2022-10-12T19:37:07.540Z,9.92
2022-10-12T19:40:14.667Z,9.75
2022-10-12T19:43:17.796Z,9.68
2022-10-12T19:46:21.427Z,10.01
2022-10-12T19:49:24.651Z,9.64
2022-10-12T19:52:28.061Z,9.70
2022-10-12T19:55:34.094Z,9.60
2022-10-12T19:58:37.853Z,9.30
2022-10-12T20:01:41.401Z,9.51
2022-10-12T20:04:44.608Z,9.33
2022-10-12T20:07:47.887Z,9.41
2022-10-12T20:10:52.834Z,9.19
2022-10-12T20:13:56.514Z,9.39
2022-10-12T20:17:00.528Z,9.57
2022-10-12T20:20:04.112Z,9.66
2022-10-12T20:23:07.327Z,9.67
2022-10-12T20:26:14.655Z,9.79
2022-10-12T20:29:17.973Z,10.04
2022-10-12T20:32:21.329Z,10.06
2022-10-12T20:35:24.720Z,10.02
2022-10-12T20:38:28.243Z,10.04
2022-10-12T20:41:32.789Z,10.09
2022-10-12T20:44:36.097Z,10.09
2022-10-12T20:47:39.343Z,10.24
2022-10-12T20:50:42.491Z,10.22
2022-10-12T20:53:46.077Z,10.24
2022-10-12T20:56:51.971Z,10.31
2022-10-12T20:59:55.242Z,10.34
2022-10-12T21:02:58.686Z,10.23
2022-10-12T21:06:06.084Z,10.41
2022-10-12T21:09:09.774Z,10.28
2022-10-12T21:12:14.244Z,10.45
2022-10-12T21:15:17.491Z,10.40
2022-10-12T21:18:27.125Z,10.37
2022-10-12T21:21:35.924Z,10.62
2022-10-12T21:24:39.171Z,10.33
2022-10-12T21:27:43.638Z,10.35
2022-10-12T21:34:32.840Z,9.89
2022-10-12T21:37:41.082Z,9.84
2022-10-12T21:40:50.376Z,9.86
2022-10-12T21:44:22.865Z,9.74
2022-10-12T21:47:30.463Z,9.69
2022-10-12T21:51:46.083Z,9.69
2022-10-12T21:54:54.812Z,9.81
2022-10-12T21:58:00.020Z,9.65
2022-10-12T22:01:08.717Z,9.38
2022-10-12T22:04:14.534Z,9.29
2022-10-12T22:07:17.865Z,9.22
2022-10-12T22:10:22.917Z,9.17
2022-10-12T22:13:27.965Z,9.69
2022-10-12T22:16:34.305Z,9.23
2022-10-12T22:19:38.724Z,9.09
2022-10-12T22:22:44.406Z,9.15
2022-10-12T22:25:50.693Z,9.01
2022-10-12T22:28:54.765Z,8.85
2022-10-12T22:31:58.983Z,8.33
2022-10-12T22:35:06.655Z,8.64
2022-10-12T22:38:10.477Z,8.63
2022-10-12T22:41:17.669Z,8.66
2022-10-12T22:44:24.589Z,8.62
2022-10-12T22:47:32.768Z,9.16
2022-10-12T22:50:38.112Z,9.22
2022-10-12T22:53:41.435Z,9.00
2022-10-12T22:56:46.788Z,8.69
2022-10-12T22:59:51.477Z,8.52
2022-10-12T23:03:00.572Z,8.52
2022-10-12T23:06:06.917Z,8.48
2022-10-12T23:09:14.418Z,8.46
2022-10-12T23:12:20.169Z,8.43
2022-10-12T23:15:24.761Z,8.25
2022-10-12T23:18:28.651Z,8.27
2022-10-12T23:21:33.961Z,8.25
2022-10-12T23:24:37.099Z,8.19
2022-10-12T23:27:41.653Z,8.60
2022-10-12T23:30:44.869Z,8.24
2022-10-12T23:33:48.566Z,8.05
2022-10-12T23:36:51.992Z,8.18
2022-10-12T23:39:55.637Z,8.21
2022-10-12T23:43:06.908Z,8.14
2022-10-12T23:46:17.156Z,8.09
2022-10-12T23:49:24.765Z,7.78
2022-10-12T23:52:30.580Z,7.88
2022-10-12T23:55:34.462Z,7.86
2022-10-12T23:58:40.579Z,7.88
